Time;durP1;ratioP1;P1;durP2;ratioP2;P2;SDS_P1;SDS_P2;PMS_P1;PMS_P2;Temp;Humidity;BMP_temperature;BMP_pressure;BME280_temperature;BME280_humidity;BME280_pressure;Samples;Min_cycle;Max_cycle;Signal;HPM_P1;HPM_P2
2022/10/14 00:00:51;;;;;;;;;;;12.10;99.90;;;;;;6115945;23;19925;-64
2022/10/14 00:03:17;;;;;;;;;;;12.10;99.90;;;;;;6116381;23;19931;-65
2022/10/14 00:05:42;;;;;;;;;;;12.00;99.90;;;;;;6116680;23;19967;-64
2022/10/14 00:08:08;;;;;;;;;;;11.90;99.90;;;;;;6116308;23;19956;-66
2022/10/14 00:10:36;;;;;;;;;;;11.90;99.90;;;;;;6116772;23;19970;-66
2022/10/14 00:13:01;;;;;;;;;;;11.90;99.90;;;;;;6116492;23;19925;-65
2022/10/14 00:15:27;;;;;;;;;;;11.90;99.90;;;;;;6116798;23;19925;-65
2022/10/14 00:17:52;;;;;;;;;;;11.80;99.90;;;;;;6116677;23;19987;-66
2022/10/14 00:20:18;;;;;;;;;;;11.90;99.90;;;;;;6116121;23;20314;-66
2022/10/14 00:22:43;;;;;;;;;;;11.80;99.90;;;;;;6116552;23;19931;-66
2022/10/14 00:25:09;;;;;;;;;;;12.00;99.90;;;;;;6116175;23;20398;-65
2022/10/14 00:27:34;;;;;;;;;;;11.80;99.90;;;;;;6115956;23;19929;-66
2022/10/14 00:30:00;;;;;;;;;;;11.80;99.90;;;;;;6116534;23;19925;-66
2022/10/14 00:32:25;;;;;;;;;;;11.80;99.90;;;;;;6116585;23;19944;-64
2022/10/14 00:34:51;;;;;;;;;;;11.80;99.90;;;;;;6116089;23;19925;-65
2022/10/14 00:37:16;;;;;;;;;;;11.80;99.90;;;;;;6116800;23;19925;-64
2022/10/14 00:39:42;;;;;;;;;;;11.80;99.90;;;;;;6116637;23;19925;-63
2022/10/14 00:42:11;;;;;;;;;;;11.80;99.90;;;;;;6116418;23;19925;-64
2022/10/14 00:44:43;;;;;;;;;;;11.80;99.90;;;;;;6116066;23;20398;-64
2022/10/14 00:47:08;;;;;;;;;;;11.80;99.90;;;;;;6116096;23;20407;-63
2022/10/14 00:49:39;;;;;;;;;;;12.10;99.90;;;;;;6116677;23;19939;-63
2022/10/14 00:52:09;;;;;;;;;;;11.80;99.90;;;;;;6115932;23;20351;-64
2022/10/14 00:54:43;;;;;;;;;;;11.80;99.90;;;;;;6116196;23;19929;-65
2022/10/14 00:57:09;;;;;;;;;;;11.80;99.90;;;;;;6116378;23;20122;-64
2022/10/14 00:59:35;;;;;;;;;;;11.70;99.90;;;;;;6115943;23;19990;-64
2022/10/14 01:02:01;;;;;;;;;;;11.80;99.90;;;;;;6115951;23;20004;-65
2022/10/14 01:04:26;;;;;;;;;;;11.70;99.90;;;;;;6116178;23;19921;-65
2022/10/14 01:07:07;;;;;;;;;;;11.70;99.90;;;;;;6115693;23;19959;-64
2022/10/14 01:09:39;;;;;;;;;;;11.70;99.90;;;;;;6116005;23;19932;-64
2022/10/14 01:12:04;;;;;;;;;;;11.60;99.90;;;;;;6116115;23;19932;-64
2022/10/14 01:14:31;;;;;;;;;;;11.60;99.90;;;;;;6115622;23;20421;-66
2022/10/14 01:16:57;;;;;;;;;;;11.60;99.90;;;;;;6116296;23;19925;-64
2022/10/14 01:19:25;;;;;;;;;;;11.60;99.90;;;;;;6116225;23;20012;-63
2022/10/14 01:21:54;;;;;;;;;;;11.60;99.90;;;;;;6116250;23;19932;-63
2022/10/14 01:24:20;;;;;;;;;;;11.60;99.90;;;;;;6116349;23;19925;-63
2022/10/14 01:26:45;;;;;;;;;;;11.90;99.90;;;;;;6116162;23;19925;-64
2022/10/14 01:29:14;;;;;;;;;;;11.50;99.90;;;;;;6116057;23;20299;-66
2022/10/14 01:31:43;;;;;;;;;;;11.50;99.90;;;;;;6116092;23;20379;-63
2022/10/14 01:34:09;;;;;;;;;;;11.40;99.90;;;;;;6116637;23;19925;-64
2022/10/14 01:36:35;;;;;;;;;;;11.40;99.90;;;;;;6116177;23;19929;-63
2022/10/14 01:39:06;;;;;;;;;;;11.40;99.90;;;;;;6116295;23;19999;-66
2022/10/14 01:41:34;;;;;;;;;;;11.40;99.90;;;;;;6115864;23;20348;-63
2022/10/14 01:44:06;;;;;;;;;;;11.40;99.90;;;;;;6116350;23;19932;-63
2022/10/14 01:46:32;;;;;;;;;;;11.30;99.90;;;;;;6115509;23;20367;-65
2022/10/14 01:49:01;;;;;;;;;;;11.50;99.90;;;;;;6116877;23;20293;-63
2022/10/14 01:51:53;;;;;;;;;;;11.20;99.90;;;;;;6119531;23;20327;-63
2022/10/14 01:54:24;;;;;;;;;;;11.10;99.90;;;;;;6117487;23;19924;-64
2022/10/14 01:56:51;;;;;;;;;;;11.10;99.90;;;;;;6113677;23;19932;-62
2022/10/14 01:59:18;;;;;;;;;;;11.10;99.90;;;;;;6116338;23;19925;-63
2022/10/14 02:01:43;;;;;;;;;;;11.00;99.90;;;;;;6116126;23;19971;-62
2022/10/14 02:04:16;;;;;;;;;;;11.10;99.90;;;;;;6115970;23;19993;-63
2022/10/14 02:06:46;;;;;;;;;;;11.00;99.90;;;;;;6117114;23;20000;-62
2022/10/14 02:09:17;;;;;;;;;;;11.00;99.90;;;;;;6117064;23;19925;-63
2022/10/14 02:11:47;;;;;;;;;;;10.90;99.90;;;;;;6117678;23;19978;-63
2022/10/14 02:14:34;;;;;;;;;;;10.80;99.90;;;;;;6117472;23;19924;-65
2022/10/14 02:17:00;;;;;;;;;;;10.80;99.90;;;;;;6116591;23;19931;-63
2022/10/14 02:19:28;;;;;;;;;;;10.80;99.90;;;;;;6117489;23;19954;-65
2022/10/14 02:22:06;;;;;;;;;;;10.80;99.90;;;;;;6117288;23;19925;-66
2022/10/14 02:24:38;;;;;;;;;;;10.70;99.90;;;;;;6116575;23;19979;-66
2022/10/14 02:27:09;;;;;;;;;;;10.70;99.90;;;;;;6116338;23;20518;-65
2022/10/14 02:29:36;;;;;;;;;;;10.70;99.90;;;;;;6116852;23;20652;-65
2022/10/14 02:32:03;;;;;;;;;;;10.60;99.90;;;;;;6117244;23;19932;-65
2022/10/14 02:34:29;;;;;;;;;;;10.50;99.90;;;;;;6116691;23;20365;-63
2022/10/14 02:36:55;;;;;;;;;;;10.60;99.90;;;;;;6117431;23;19925;-65
2022/10/14 02:39:26;;;;;;;;;;;10.40;99.90;;;;;;6116010;23;19925;-64
2022/10/14 02:41:51;;;;;;;;;;;10.40;99.90;;;;;;6117007;23;19929;-63
2022/10/14 02:44:17;;;;;;;;;;;10.50;99.90;;;;;;6117216;23;20020;-63
2022/10/14 02:46:42;;;;;;;;;;;10.50;99.90;;;;;;6116957;23;19925;-63
2022/10/14 02:49:08;;;;;;;;;;;10.50;99.90;;;;;;6116959;23;19925;-67
2022/10/14 02:51:33;;;;;;;;;;;10.50;99.90;;;;;;6116765;23;19995;-66
2022/10/14 02:54:00;;;;;;;;;;;10.50;99.90;;;;;;6116405;23;19956;-67
2022/10/14 02:56:26;;;;;;;;;;;10.50;99.90;;;;;;6116542;23;20236;-66
2022/10/14 02:58:51;;;;;;;;;;;10.50;99.90;;;;;;6116088;23;19996;-67
2022/10/14 03:01:17;;;;;;;;;;;10.50;99.90;;;;;;6116705;23;19932;-66
2022/10/14 03:03:42;;;;;;;;;;;10.70;99.90;;;;;;6116550;23;19964;-68
2022/10/14 03:06:08;;;;;;;;;;;10.40;99.90;;;;;;6116895;23;19924;-67
2022/10/14 03:08:34;;;;;;;;;;;10.40;99.90;;;;;;6116259;23;19932;-65
2022/10/14 03:10:59;;;;;;;;;;;10.30;99.90;;;;;;6116556;23;20189;-64
2022/10/14 03:13:25;;;;;;;;;;;10.40;99.90;;;;;;6116399;23;19929;-66
2022/10/14 03:15:50;;;;;;;;;;;9.70;99.90;;;;;;6116776;23;19971;-65
2022/10/14 03:18:16;;;;;;;;;;;10.40;99.90;;;;;;6114659;23;19933;-66
2022/10/14 03:20:43;;;;;;;;;;;10.40;99.90;;;;;;6116342;23;19978;-64
2022/10/14 03:23:09;;;;;;;;;;;10.40;99.90;;;;;;6116004;23;20004;-66
2022/10/14 03:25:34;;;;;;;;;;;10.40;99.90;;;;;;6115482;23;19925;-66
2022/10/14 03:28:00;;;;;;;;;;;10.30;99.90;;;;;;6116833;23;19960;-66
2022/10/14 03:30:25;;;;;;;;;;;10.30;99.90;;;;;;6116441;23;19989;-66
2022/10/14 03:32:51;;;;;;;;;;;10.30;99.90;;;;;;6116300;23;20027;-67
2022/10/14 03:35:16;;;;;;;;;;;10.30;99.90;;;;;;6116571;23;20051;-65
2022/10/14 03:37:42;;;;;;;;;;;10.20;99.90;;;;;;6116987;23;19932;-64
2022/10/14 03:40:08;;;;;;;;;;;10.20;99.90;;;;;;6116914;23;19979;-66
2022/10/14 03:42:33;;;;;;;;;;;10.10;99.90;;;;;;6117053;23;19994;-64
2022/10/14 03:44:59;;;;;;;;;;;10.20;99.90;;;;;;6116883;23;19978;-65
2022/10/14 03:47:25;;;;;;;;;;;10.20;99.90;;;;;;6116250;23;19929;-65
2022/10/14 03:49:50;;;;;;;;;;;10.10;99.90;;;;;;6116740;23;19948;-67
2022/10/14 03:52:16;;;;;;;;;;;10.10;99.90;;;;;;6117174;23;19932;-64
2022/10/14 03:54:41;;;;;;;;;;;10.10;99.90;;;;;;6116169;23;19932;-67
2022/10/14 03:57:07;;;;;;;;;;;10.10;99.90;;;;;;6116931;23;19994;-64
2022/10/14 03:59:32;;;;;;;;;;;10.10;99.90;;;;;;6116325;23;20050;-63
2022/10/14 04:01:58;;;;;;;;;;;10.10;99.90;;;;;;6116646;23;19960;-62
2022/10/14 04:04:23;;;;;;;;;;;10.10;99.90;;;;;;6116721;23;19991;-62
2022/10/14 04:06:49;;;;;;;;;;;10.10;99.90;;;;;;6116290;23;20350;-63
2022/10/14 04:09:15;;;;;;;;;;;10.00;99.90;;;;;;6116414;23;20417;-62
2022/10/14 04:11:40;;;;;;;;;;;10.00;99.90;;;;;;6116973;23;19925;-62
2022/10/14 04:14:06;;;;;;;;;;;10.10;99.90;;;;;;6116939;23;19975;-64
2022/10/14 04:16:31;;;;;;;;;;;10.10;99.90;;;;;;6116129;23;19932;-62
2022/10/14 04:18:57;;;;;;;;;;;10.10;99.90;;;;;;6115806;23;19925;-62
2022/10/14 04:21:23;;;;;;;;;;;10.10;99.90;;;;;;6117027;23;20322;-63
2022/10/14 04:23:49;;;;;;;;;;;10.10;99.90;;;;;;6116471;23;20354;-65
2022/10/14 04:26:15;;;;;;;;;;;10.10;99.90;;;;;;6116698;23;20423;-63
2022/10/14 04:28:40;;;;;;;;;;;10.10;99.90;;;;;;6114360;23;19932;-63
2022/10/14 04:31:06;;;;;;;;;;;10.10;99.90;;;;;;6115910;23;19929;-66
2022/10/14 04:33:31;;;;;;;;;;;10.20;99.90;;;;;;6115945;23;19924;-68
2022/10/14 04:35:58;;;;;;;;;;;10.30;99.90;;;;;;6115614;23;19925;-64
2022/10/14 04:38:24;;;;;;;;;;;11.50;99.90;;;;;;6114656;23;19932;-66
2022/10/14 04:40:50;;;;;;;;;;;10.30;99.90;;;;;;6114872;23;19925;-63
2022/10/14 04:43:15;;;;;;;;;;;10.30;99.90;;;;;;6115338;23;19936;-62
2022/10/14 04:45:41;;;;;;;;;;;10.30;99.90;;;;;;6115733;23;19932;-64
2022/10/14 04:48:06;;;;;;;;;;;10.30;99.90;;;;;;6115462;23;19925;-63
2022/10/14 04:50:32;;;;;;;;;;;10.40;99.90;;;;;;6115247;23;19932;-64
2022/10/14 04:52:57;;;;;;;;;;;10.30;99.90;;;;;;6115308;23;19932;-62
2022/10/14 04:55:23;;;;;;;;;;;10.40;99.90;;;;;;6115284;23;19924;-64
2022/10/14 04:57:48;;;;;;;;;;;10.30;99.90;;;;;;6114818;23;20285;-65
2022/10/14 05:00:14;;;;;;;;;;;10.40;99.90;;;;;;6114699;23;20340;-64
2022/10/14 05:02:40;;;;;;;;;;;10.40;99.90;;;;;;6115237;23;20304;-65
2022/10/14 05:05:06;;;;;;;;;;;10.30;99.90;;;;;;6116627;23;19928;-62
2022/10/14 05:07:32;;;;;;;;;;;10.40;99.90;;;;;;6115762;23;19925;-63
2022/10/14 05:09:58;;;;;;;;;;;10.40;99.90;;;;;;6115812;23;19925;-63
2022/10/14 05:12:24;;;;;;;;;;;10.40;99.90;;;;;;6116055;23;19979;-64
2022/10/14 05:14:49;;;;;;;;;;;10.30;99.90;;;;;;6116068;23;19932;-62
2022/10/14 05:17:15;;;;;;;;;;;10.40;99.90;;;;;;6115670;23;20414;-62
2022/10/14 05:19:40;;;;;;;;;;;10.60;99.90;;;;;;6116108;23;19925;-62
2022/10/14 05:22:06;;;;;;;;;;;10.40;99.90;;;;;;6115731;23;19929;-62
2022/10/14 05:24:31;;;;;;;;;;;10.30;99.90;;;;;;6116152;23;19925;-64
2022/10/14 05:26:57;;;;;;;;;;;10.40;99.90;;;;;;6115762;23;19931;-65
2022/10/14 05:29:22;;;;;;;;;;;10.40;99.90;;;;;;6115815;23;19931;-65
2022/10/14 05:31:48;;;;;;;;;;;10.40;99.90;;;;;;6116277;23;19961;-62
2022/10/14 05:34:13;;;;;;;;;;;10.30;99.90;;;;;;6115960;23;19951;-65
2022/10/14 05:36:39;;;;;;;;;;;10.40;99.90;;;;;;6114661;23;19987;-62
2022/10/14 05:39:08;;;;;;;;;;;10.30;99.90;;;;;;6114825;23;20008;-64
2022/10/14 05:41:33;;;;;;;;;;;10.30;99.90;;;;;;6111598;23;19932;-62
2022/10/14 05:43:59;;;;;;;;;;;10.30;99.90;;;;;;6114275;23;19925;-63
2022/10/14 05:46:24;;;;;;;;;;;10.40;99.90;;;;;;6113996;23;19924;-64
2022/10/14 05:48:50;;;;;;;;;;;10.40;99.90;;;;;;6113964;23;19929;-62
2022/10/14 05:51:19;;;;;;;;;;;10.30;99.90;;;;;;6114833;23;19929;-63
2022/10/14 05:53:46;;;;;;;;;;;10.30;99.90;;;;;;6115574;23;20484;-65
2022/10/14 05:56:11;;;;;;;;;;;10.40;99.90;;;;;;6114682;23;19924;-66
2022/10/14 05:58:37;;;;;;;;;;;10.30;99.90;;;;;;6115415;23;19931;-65
2022/10/14 06:01:03;;;;;;;;;;;10.40;99.90;;;;;;6114303;23;19928;-62
2022/10/14 06:03:29;;;;;;;;;;;10.40;99.90;;;;;;6110521;23;19925;-64
2022/10/14 06:05:54;;;;;;;;;;;10.40;99.90;;;;;;6114760;23;20307;-65
2022/10/14 06:08:21;;;;;;;;;;;10.40;99.90;;;;;;6115079;23;20324;-62
2022/10/14 06:10:48;;;;;;;;;;;10.40;99.90;;;;;;6113818;23;20090;-62
2022/10/14 06:13:14;;;;;;;;;;;10.40;99.90;;;;;;6116048;23;20319;-63
2022/10/14 06:15:39;;;;;;;;;;;10.40;99.90;;;;;;6115786;23;19925;-62
2022/10/14 06:18:05;;;;;;;;;;;10.50;99.90;;;;;;6115507;23;19929;-62
2022/10/14 06:20:30;;;;;;;;;;;10.50;99.90;;;;;;6115347;23;19970;-63
2022/10/14 06:22:59;;;;;;;;;;;10.50;99.90;;;;;;6115194;23;19925;-63
2022/10/14 06:25:25;;;;;;;;;;;10.60;99.90;;;;;;6114761;23;20018;-62
2022/10/14 06:27:51;;;;;;;;;;;10.60;99.90;;;;;;6115202;23;19928;-62
2022/10/14 06:30:16;;;;;;;;;;;10.60;99.90;;;;;;6115153;23;19928;-63
2022/10/14 06:32:42;;;;;;;;;;;10.60;99.90;;;;;;6115387;23;19925;-64
2022/10/14 06:35:08;;;;;;;;;;;10.60;99.90;;;;;;6115652;23;19925;-64
2022/10/14 06:37:33;;;;;;;;;;;10.70;99.90;;;;;;6115187;23;20282;-62
2022/10/14 06:39:59;;;;;;;;;;;10.70;99.90;;;;;;6114606;23;19925;-62
2022/10/14 06:42:24;;;;;;;;;;;10.70;99.90;;;;;;6115401;23;19964;-63
2022/10/14 06:44:50;;;;;;;;;;;10.80;99.90;;;;;;6113778;23;19953;-62
2022/10/14 06:47:15;;;;;;;;;;;10.80;99.90;;;;;;6113800;23;19936;-62
2022/10/14 06:49:41;;;;;;;;;;;10.80;99.90;;;;;;6114662;23;19979;-62
2022/10/14 06:52:07;;;;;;;;;;;10.80;99.90;;;;;;6115341;23;19925;-62
2022/10/14 06:54:33;;;;;;;;;;;10.90;99.90;;;;;;6116296;23;19932;-62
2022/10/14 06:56:58;;;;;;;;;;;11.00;99.90;;;;;;6116638;23;19921;-62
2022/10/14 06:59:24;;;;;;;;;;;11.00;99.90;;;;;;6116647;23;20351;-63
2022/10/14 07:01:50;;;;;;;;;;;11.00;99.90;;;;;;6116177;23;20244;-63
2022/10/14 07:04:15;;;;;;;;;;;11.10;99.90;;;;;;6115425;23;20002;-62
2022/10/14 07:06:41;;;;;;;;;;;11.10;99.90;;;;;;6112417;23;19924;-62
2022/10/14 07:09:06;;;;;;;;;;;11.10;99.90;;;;;;6115286;23;19925;-62
2022/10/14 07:11:32;;;;;;;;;;;11.00;99.90;;;;;;6115917;23;19980;-63
2022/10/14 07:13:58;;;;;;;;;;;11.10;99.90;;;;;;6116987;23;20251;-62
2022/10/14 07:16:23;;;;;;;;;;;11.00;99.90;;;;;;6116832;23;19925;-62
2022/10/14 07:18:49;;;;;;;;;;;11.00;99.90;;;;;;6115560;23;19925;-62
2022/10/14 07:21:14;;;;;;;;;;;11.10;99.90;;;;;;6116122;23;19925;-62
2022/10/14 07:23:40;;;;;;;;;;;11.10;99.90;;;;;;6116583;23;19967;-63
2022/10/14 07:26:06;;;;;;;;;;;11.10;99.90;;;;;;6114905;23;20340;-64
2022/10/14 07:28:32;;;;;;;;;;;11.20;99.90;;;;;;6116829;23;19932;-63
2022/10/14 07:30:59;;;;;;;;;;;11.20;99.90;;;;;;6111424;23;19931;-64
2022/10/14 07:33:25;;;;;;;;;;;11.20;99.90;;;;;;6110650;23;20076;-64
2022/10/14 07:35:50;;;;;;;;;;;11.30;99.90;;;;;;6115530;23;19952;-63
2022/10/14 07:38:16;;;;;;;;;;;11.40;99.90;;;;;;6116245;23;19960;-64
2022/10/14 07:40:41;;;;;;;;;;;11.40;99.90;;;;;;6115439;23;19925;-67
2022/10/14 07:43:07;;;;;;;;;;;11.60;99.90;;;;;;6115705;23;20008;-63
2022/10/14 07:45:35;;;;;;;;;;;11.40;99.90;;;;;;6115560;23;20220;-62
2022/10/14 07:48:00;;;;;;;;;;;11.60;99.90;;;;;;6113919;23;19932;-63
2022/10/14 07:50:26;;;;;;;;;;;11.70;99.90;;;;;;6115639;23;20255;-62
2022/10/14 07:52:52;;;;;;;;;;;12.00;99.90;;;;;;6115966;23;19932;-62
2022/10/14 07:55:18;;;;;;;;;;;11.60;99.90;;;;;;6116028;23;19933;-65
2022/10/14 07:57:43;;;;;;;;;;;11.70;99.90;;;;;;6116698;23;19925;-63
2022/10/14 08:00:09;;;;;;;;;;;11.60;99.90;;;;;;6114434;23;20294;-62
2022/10/14 08:02:34;;;;;;;;;;;11.70;99.90;;;;;;6115468;23;20336;-63
2022/10/14 08:05:00;;;;;;;;;;;11.80;99.90;;;;;;6116230;23;19925;-63
2022/10/14 08:07:26;;;;;;;;;;;11.70;99.90;;;;;;6115529;23;20288;-63
2022/10/14 08:09:52;;;;;;;;;;;11.70;99.90;;;;;;6115889;23;19925;-62
2022/10/14 08:12:18;;;;;;;;;;;11.80;99.90;;;;;;6116291;23;19925;-63
2022/10/14 08:14:44;;;;;;;;;;;11.90;99.90;;;;;;6115002;23;19997;-63
2022/10/14 08:17:09;;;;;;;;;;;12.00;99.90;;;;;;6113828;23;19925;-63
2022/10/14 08:19:35;;;;;;;;;;;12.00;99.90;;;;;;6115195;23;19952;-63
2022/10/14 08:22:03;;;;;;;;;;;12.00;99.90;;;;;;6115788;23;19925;-67
2022/10/14 08:24:28;;;;;;;;;;;12.10;99.90;;;;;;6116538;23;19925;-62
2022/10/14 08:26:56;;;;;;;;;;;12.00;99.90;;;;;;6115567;23;19925;-66
2022/10/14 08:29:22;;;;;;;;;;;12.20;99.90;;;;;;6116196;23;19960;-63
2022/10/14 08:31:49;;;;;;;;;;;12.30;99.90;;;;;;6111380;23;20598;-62
2022/10/14 08:34:14;;;;;;;;;;;12.30;99.90;;;;;;6116402;23;19928;-63
2022/10/14 08:36:40;;;;;;;;;;;12.40;99.90;;;;;;6113398;23;20252;-63
2022/10/14 08:39:06;;;;;;;;;;;12.50;99.90;;;;;;6115919;23;19929;-62
2022/10/14 08:41:37;;;;;;;;;;;12.60;99.90;;;;;;6116113;23;20237;-63
2022/10/14 08:44:12;;;;;;;;;;;12.70;99.90;;;;;;6115328;23;20396;-64
2022/10/14 08:46:37;;;;;;;;;;;12.80;99.90;;;;;;6115498;23;20343;-62
2022/10/14 08:49:12;;;;;;;;;;;13.00;99.90;;;;;;6115720;23;20051;-63
2022/10/14 08:51:39;;;;;;;;;;;13.10;99.90;;;;;;6116016;23;20355;-62
2022/10/14 08:54:09;;;;;;;;;;;13.00;99.90;;;;;;6116120;23;19932;-63
2022/10/14 08:56:36;;;;;;;;;;;13.00;99.90;;;;;;6112656;23;19931;-63
2022/10/14 08:59:06;;;;;;;;;;;13.20;99.90;;;;;;6111936;23;20009;-63
2022/10/14 09:01:33;;;;;;;;;;;13.30;99.90;;;;;;6114746;23;19982;-62
2022/10/14 09:04:01;;;;;;;;;;;13.30;99.90;;;;;;6115300;23;20008;-62
2022/10/14 09:06:28;;;;;;;;;;;13.40;99.90;;;;;;6115166;23;19925;-64
2022/10/14 09:08:55;;;;;;;;;;;13.40;99.90;;;;;;6115249;23;19925;-63
2022/10/14 09:11:21;;;;;;;;;;;13.40;99.90;;;;;;6116223;23;20235;-63
2022/10/14 09:13:51;;;;;;;;;;;13.50;99.90;;;;;;6116328;23;19932;-62
2022/10/14 09:16:21;;;;;;;;;;;13.50;99.90;;;;;;6115091;23;19974;-63
2022/10/14 09:18:47;;;;;;;;;;;13.70;99.90;;;;;;6115238;23;19924;-63
2022/10/14 09:21:31;;;;;;;;;;;13.70;99.90;;;;;;6115810;23;19925;-63
2022/10/14 09:24:01;;;;;;;;;;;13.60;99.90;;;;;;6116452;23;19968;-63
2022/10/14 09:26:37;;;;;;;;;;;13.70;99.90;;;;;;6116126;23;19925;-63
2022/10/14 09:29:03;;;;;;;;;;;13.60;99.90;;;;;;6116723;23;20004;-62
2022/10/14 09:31:28;;;;;;;;;;;13.80;99.90;;;;;;6115771;23;19949;-63
2022/10/14 09:33:54;;;;;;;;;;;13.70;99.90;;;;;;6115719;23;20416;-63
2022/10/14 09:36:20;;;;;;;;;;;14.00;99.90;;;;;;6115779;23;19925;-63
2022/10/14 09:38:53;;;;;;;;;;;14.10;99.90;;;;;;6115281;23;19935;-63
2022/10/14 09:41:24;;;;;;;;;;;14.20;99.90;;;;;;6115221;23;19925;-63
2022/10/14 09:44:08;;;;;;;;;;;14.40;99.90;;;;;;6115159;23;20012;-63
2022/10/14 09:46:34;;;;;;;;;;;14.50;99.90;;;;;;6115573;23;20008;-63
2022/10/14 09:49:00;;;;;;;;;;;14.60;99.90;;;;;;6114924;23;20337;-63
2022/10/14 09:51:31;;;;;;;;;;;14.60;99.90;;;;;;6115442;23;19928;-64
2022/10/14 09:53:57;;;;;;;;;;;14.50;99.90;;;;;;6115002;23;20358;-63
2022/10/14 09:56:30;;;;;;;;;;;14.50;99.90;;;;;;6114951;23;19924;-63
2022/10/14 09:58:56;;;;;;;;;;;14.60;99.90;;;;;;6114244;23;19983;-63
2022/10/14 10:01:26;;;;;;;;;;;14.70;99.90;;;;;;6088351;23;20251;-63
2022/10/14 10:03:52;;;;;;;;;;;14.70;99.90;;;;;;6115171;23;19975;-64
2022/10/14 10:06:24;;;;;;;;;;;14.70;99.90;;;;;;6116326;23;19924;-64
2022/10/14 10:08:53;;;;;;;;;;;14.70;99.90;;;;;;6114937;23;20000;-62
2022/10/14 10:11:32;;;;;;;;;;;14.60;99.90;;;;;;6115126;23;20229;-63
2022/10/14 10:13:58;;;;;;;;;;;14.60;99.90;;;;;;6115493;23;20004;-62
2022/10/14 10:16:31;;;;;;;;;;;14.60;99.90;;;;;;6114760;23;20272;-62
2022/10/14 10:19:17;;;;;;;;;;;14.50;99.90;;;;;;6113979;23;19925;-62
2022/10/14 10:21:42;;;;;;;;;;;14.50;99.90;;;;;;6115232;23;20032;-62
2022/10/14 10:24:16;;;;;;;;;;;14.40;99.90;;;;;;6113702;23;19984;-62
2022/10/14 10:26:41;;;;;;;;;;;14.30;99.90;;;;;;6113929;23;19952;-64
2022/10/14 10:29:20;;;;;;;;;;;14.40;99.90;;;;;;6115474;23;19932;-63
2022/10/14 10:31:51;;;;;;;;;;;14.50;99.90;;;;;;6116050;23;19935;-63
2022/10/14 10:34:31;;;;;;;;;;;14.40;99.90;;;;;;6116758;23;19929;-64
2022/10/14 10:37:02;;;;;;;;;;;14.50;99.90;;;;;;6115093;23;19932;-64
2022/10/14 10:39:28;;;;;;;;;;;14.80;99.90;;;;;;6113799;23;19932;-63
2022/10/14 10:42:26;;;;;;;;;;;14.50;99.90;;;;;;6115841;23;20246;-64
2022/10/14 10:45:05;;;;;;;;;;;14.50;99.90;;;;;;6132094;23;19982;-64
2022/10/14 10:47:46;;;;;;;;;;;14.50;99.90;;;;;;6111886;23;20352;-67
2022/10/14 10:50:30;;;;;;;;;;;14.50;99.90;;;;;;6114570;23;19971;-66
2022/10/14 10:53:14;;;;;;;;;;;14.50;99.90;;;;;;6115321;23;20030;-66
2022/10/14 10:55:56;;;;;;;;;;;14.50;99.90;;;;;;6114243;23;20397;-65
2022/10/14 10:58:34;;;;;;;;;;;14.50;99.90;;;;;;6116208;23;20255;-63
2022/10/14 11:01:20;;;;;;;;;;;14.40;99.90;;;;;;6113731;23;19940;-63
2022/10/14 11:03:54;;;;;;;;;;;14.40;99.90;;;;;;6115742;23;20430;-64
2022/10/14 11:12:27;;;;;;;;;;;14.40;99.90;;;;;;6115819;23;19925;-63
2022/10/14 11:15:05;;;;;;;;;;;14.30;99.90;;;;;;6116213;23;20303;-62
2022/10/14 11:17:31;;;;;;;;;;;14.30;99.90;;;;;;6115250;23;19925;-63
2022/10/14 11:20:04;;;;;;;;;;;14.30;99.90;;;;;;6111522;23;19978;-63
2022/10/14 11:22:53;;;;;;;;;;;14.30;99.90;;;;;;6115050;23;19994;-62
2022/10/14 11:25:41;;;;;;;;;;;14.30;99.90;;;;;;6119765;23;19979;-62
2022/10/14 11:28:15;;;;;;;;;;;14.30;99.90;;;;;;6114688;23;19952;-62
2022/10/14 11:30:44;;;;;;;;;;;14.20;99.90;;;;;;6116309;23;19991;-63
2022/10/14 11:33:13;;;;;;;;;;;14.30;99.90;;;;;;6116235;23;19956;-63
2022/10/14 11:35:44;;;;;;;;;;;14.30;99.90;;;;;;6114407;23;20278;-62
2022/10/14 11:38:19;;;;;;;;;;;14.30;99.90;;;;;;6113560;23;19933;-63
2022/10/14 11:40:50;;;;;;;;;;;14.30;99.90;;;;;;6115106;23;19964;-62
2022/10/14 11:43:16;;;;;;;;;;;14.30;99.90;;;;;;6114021;23;19929;-62
2022/10/14 11:45:47;;;;;;;;;;;14.40;99.90;;;;;;6114191;23;19925;-63
2022/10/14 11:48:25;;;;;;;;;;;14.30;99.90;;;;;;6114961;23;19967;-65
2022/10/14 11:50:55;;;;;;;;;;;14.30;99.90;;;;;;6114821;23;19925;-64
2022/10/14 11:53:30;;;;;;;;;;;14.30;99.90;;;;;;6114561;23;20538;-65
2022/10/14 11:56:02;;;;;;;;;;;14.40;99.90;;;;;;6113772;23;19936;-63
2022/10/14 11:58:29;;;;;;;;;;;14.40;99.90;;;;;;6113871;23;19925;-65
2022/10/14 12:00:58;;;;;;;;;;;14.50;99.90;;;;;;6115030;23;19996;-63
2022/10/14 12:03:36;;;;;;;;;;;14.50;99.90;;;;;;6114567;23;19924;-63
2022/10/14 12:06:23;;;;;;;;;;;14.40;99.90;;;;;;6114445;23;19964;-63
2022/10/14 12:09:00;;;;;;;;;;;14.20;99.90;;;;;;6113770;23;19978;-63
2022/10/14 12:11:34;;;;;;;;;;;14.20;99.90;;;;;;6114274;23;19929;-64
2022/10/14 12:14:18;;;;;;;;;;;14.20;99.90;;;;;;6114946;23;19924;-67
2022/10/14 12:16:44;;;;;;;;;;;14.20;99.90;;;;;;6114475;23;20355;-68
2022/10/14 12:19:11;;;;;;;;;;;14.20;99.90;;;;;;6114035;23;20336;-66
2022/10/14 12:21:57;;;;;;;;;;;14.20;99.90;;;;;;6114934;23;20028;-63
2022/10/14 12:24:24;;;;;;;;;;;14.10;99.90;;;;;;6115077;23;19925;-71
2022/10/14 12:26:54;;;;;;;;;;;14.20;99.90;;;;;;6113985;23;20030;-70
2022/10/14 12:29:38;;;;;;;;;;;14.20;99.90;;;;;;6114764;23;19972;-65
2022/10/14 12:32:03;;;;;;;;;;;14.30;99.90;;;;;;6114782;23;20723;-64
2022/10/14 12:34:35;;;;;;;;;;;14.20;99.90;;;;;;6113130;23;19964;-62
2022/10/14 12:37:21;;;;;;;;;;;14.30;99.90;;;;;;6115880;23;19992;-65
2022/10/14 12:39:47;;;;;;;;;;;14.30;99.90;;;;;;6115557;23;19925;-63
2022/10/14 12:42:13;;;;;;;;;;;14.20;99.90;;;;;;6114560;23;20043;-63
2022/10/14 12:44:50;;;;;;;;;;;14.20;99.90;;;;;;6116128;23;19924;-66
2022/10/14 12:47:16;;;;;;;;;;;14.20;99.90;;;;;;6114362;23;19929;-65
2022/10/14 12:49:45;;;;;;;;;;;14.20;99.90;;;;;;6115212;23;20492;-63
2022/10/14 12:52:17;;;;;;;;;;;14.10;99.90;;;;;;6115817;23;19925;-65
2022/10/14 12:54:46;;;;;;;;;;;14.10;99.90;;;;;;6114667;23;19925;-64
2022/10/14 12:57:15;;;;;;;;;;;14.20;99.90;;;;;;6113063;23;19924;-68
2022/10/14 12:59:41;;;;;;;;;;;14.20;99.90;;;;;;6112072;23;19999;-68
2022/10/14 13:02:25;;;;;;;;;;;14.10;99.90;;;;;;6112572;23;19964;-67
2022/10/14 13:04:52;;;;;;;;;;;14.20;99.90;;;;;;6112549;23;19996;-62
2022/10/14 13:07:24;;;;;;;;;;;14.10;99.90;;;;;;6113669;23;19939;-63
2022/10/14 13:09:56;;;;;;;;;;;14.20;99.90;;;;;;6113336;23;19932;-63
2022/10/14 13:12:21;;;;;;;;;;;14.10;99.90;;;;;;6114485;23;20358;-63
2022/10/14 13:14:53;;;;;;;;;;;14.20;99.90;;;;;;6112508;23;19925;-63
2022/10/14 13:17:28;;;;;;;;;;;14.20;99.90;;;;;;6114157;23;20252;-62
2022/10/14 13:19:53;;;;;;;;;;;14.20;99.90;;;;;;6108439;23;20352;-63
2022/10/14 13:22:28;;;;;;;;;;;14.20;99.90;;;;;;6111903;23;19925;-62
2022/10/14 13:25:11;;;;;;;;;;;14.20;99.90;;;;;;6113084;23;19924;-63
2022/10/14 13:27:44;;;;;;;;;;;14.20;99.90;;;;;;6112524;23;20310;-62
2022/10/14 13:30:27;;;;;;;;;;;14.20;99.90;;;;;;6112193;23;20112;-63
2022/10/14 13:33:03;;;;;;;;;;;14.20;99.90;;;;;;6113241;23;19924;-62
2022/10/14 13:35:41;;;;;;;;;;;14.30;99.90;;;;;;6112302;23;19975;-62
2022/10/14 13:38:13;;;;;;;;;;;14.20;99.90;;;;;;6113568;23;20360;-63
2022/10/14 13:40:42;;;;;;;;;;;14.20;99.90;;;;;;6114085;23;20337;-63
2022/10/14 13:43:20;;;;;;;;;;;14.20;99.90;;;;;;6113746;23;20360;-62
2022/10/14 13:45:50;;;;;;;;;;;14.20;99.90;;;;;;6114710;23;19932;-63
2022/10/14 13:48:42;;;;;;;;;;;14.30;99.90;;;;;;6113361;23;19928;-62
2022/10/14 13:51:14;;;;;;;;;;;14.20;99.90;;;;;;6115444;23;20355;-63
2022/10/14 13:54:12;;;;;;;;;;;14.30;99.90;;;;;;6114927;23;19925;-63
2022/10/14 13:56:37;;;;;;;;;;;14.30;99.90;;;;;;6131209;23;19925;-62
2022/10/14 13:59:16;;;;;;;;;;;14.30;99.90;;;;;;6115029;23;20353;-63
2022/10/14 14:01:41;;;;;;;;;;;14.30;99.90;;;;;;6114725;23;19925;-62
2022/10/14 14:04:11;;;;;;;;;;;14.40;99.90;;;;;;6114305;23;19925;-62
2022/10/14 14:06:42;;;;;;;;;;;14.40;99.90;;;;;;6113508;23;19931;-62
2022/10/14 14:09:14;;;;;;;;;;;14.40;99.90;;;;;;6112863;23;20251;-62
2022/10/14 14:11:45;;;;;;;;;;;14.40;99.90;;;;;;6114074;23;19931;-62
2022/10/14 14:14:13;;;;;;;;;;;14.40;99.90;;;;;;6113969;23;19925;-62
2022/10/14 14:16:40;;;;;;;;;;;14.50;99.90;;;;;;6113838;23;19963;-63
2022/10/14 14:19:16;;;;;;;;;;;14.50;99.90;;;;;;6114755;23;19936;-62
2022/10/14 14:21:41;;;;;;;;;;;14.50;99.90;;;;;;6114697;23;19928;-62
2022/10/14 14:24:18;;;;;;;;;;;14.50;99.90;;;;;;6115019;23;20304;-70
2022/10/14 14:26:43;;;;;;;;;;;14.60;99.90;;;;;;6113859;23;20004;-68
2022/10/14 14:29:13;;;;;;;;;;;14.60;99.90;;;;;;6113107;23;19963;-66
2022/10/14 14:31:39;;;;;;;;;;;14.60;99.90;;;;;;6114651;23;19925;-69